sensor_id;sensor_type;location;lat;lon;timestamp;P1;durP1;ratioP1;P2;durP2;ratioP2
18887;SDS011;9576;47.792;9.628;2022-08-01T00:00:17;4.45;;;3.08;;
18887;SDS011;9576;47.792;9.628;2022-08-01T00:03:19;5.80;;;3.53;;
18887;SDS011;9576;47.792;9.628;2022-08-01T00:06:21;5.88;;;3.13;;
18887;SDS011;9576;47.792;9.628;2022-08-01T00:09:24;3.55;;;2.90;;
18887;SDS011;9576;47.792;9.628;2022-08-01T00:12:27;6.32;;;3.20;;
18887;SDS011;9576;47.792;9.628;2022-08-01T00:15:29;7.70;;;2.75;;
18887;SDS011;9576;47.792;9.628;2022-08-01T00:18:32;7.13;;;3.33;;
18887;SDS011;9576;47.792;9.628;2022-08-01T00:21:35;3.60;;;3.20;;
18887;SDS011;9576;47.792;9.628;2022-08-01T00:24:39;5.47;;;3.45;;
18887;SDS011;9576;47.792;9.628;2022-08-01T00:27:41;6.30;;;3.53;;
18887;SDS011;9576;47.792;9.628;2022-08-01T00:30:43;11.65;;;3.35;;
18887;SDS011;9576;47.792;9.628;2022-08-01T00:33:45;4.97;;;3.40;;
18887;SDS011;9576;47.792;9.628;2022-08-01T00:36:47;5.18;;;3.38;;
18887;SDS011;9576;47.792;9.628;2022-08-01T00:39:51;4.25;;;3.45;;
18887;SDS011;9576;47.792;9.628;2022-08-01T00:42:53;3.45;;;2.90;;
18887;SDS011;9576;47.792;9.628;2022-08-01T00:45:55;5.80;;;3.55;;
18887;SDS011;9576;47.792;9.628;2022-08-01T00:48:57;6.70;;;3.25;;
18887;SDS011;9576;47.792;9.628;2022-08-01T00:52:00;5.25;;;3.40;;
18887;SDS011;9576;47.792;9.628;2022-08-01T00:55:06;4.88;;;3.30;;
18887;SDS011;9576;47.792;9.628;2022-08-01T00:58:10;4.18;;;3.15;;
18887;SDS011;9576;47.792;9.628;2022-08-01T01:01:12;6.35;;;4.53;;
18887;SDS011;9576;47.792;9.628;2022-08-01T01:04:15;5.75;;;3.63;;
18887;SDS011;9576;47.792;9.628;2022-08-01T01:07:19;6.85;;;3.13;;
18887;SDS011;9576;47.792;9.628;2022-08-01T01:10:28;12.57;;;4.15;;
18887;SDS011;9576;47.792;9.628;2022-08-01T01:13:37;6.45;;;3.50;;
18887;SDS011;9576;47.792;9.628;2022-08-01T01:16:43;7.88;;;4.07;;
18887;SDS011;9576;47.792;9.628;2022-08-01T01:19:48;5.43;;;3.40;;
18887;SDS011;9576;47.792;9.628;2022-08-01T01:22:59;9.05;;;4.00;;
18887;SDS011;9576;47.792;9.628;2022-08-01T01:26:26;12.77;;;4.18;;
18887;SDS011;9576;47.792;9.628;2022-08-01T01:29:40;9.57;;;4.15;;
18887;SDS011;9576;47.792;9.628;2022-08-01T01:32:44;14.65;;;3.47;;
18887;SDS011;9576;47.792;9.628;2022-08-01T01:35:51;6.75;;;3.88;;
18887;SDS011;9576;47.792;9.628;2022-08-01T01:38:58;6.50;;;3.90;;
18887;SDS011;9576;47.792;9.628;2022-08-01T01:42:03;11.85;;;3.95;;
18887;SDS011;9576;47.792;9.628;2022-08-01T01:45:09;5.35;;;4.03;;
18887;SDS011;9576;47.792;9.628;2022-08-01T01:48:13;12.45;;;3.75;;
18887;SDS011;9576;47.792;9.628;2022-08-01T01:51:16;8.70;;;4.22;;
18887;SDS011;9576;47.792;9.628;2022-08-01T01:54:22;15.10;;;4.80;;
18887;SDS011;9576;47.792;9.628;2022-08-01T01:57:29;7.40;;;4.18;;
18887;SDS011;9576;47.792;9.628;2022-08-01T02:00:33;6.75;;;3.53;;
18887;SDS011;9576;47.792;9.628;2022-08-01T02:03:36;5.25;;;3.78;;
18887;SDS011;9576;47.792;9.628;2022-08-01T02:06:41;7.30;;;4.05;;
18887;SDS011;9576;47.792;9.628;2022-08-01T02:09:44;6.45;;;3.60;;
18887;SDS011;9576;47.792;9.628;2022-08-01T02:12:48;6.65;;;3.30;;
18887;SDS011;9576;47.792;9.628;2022-08-01T02:15:53;7.55;;;3.42;;
18887;SDS011;9576;47.792;9.628;2022-08-01T02:18:55;6.72;;;3.90;;
18887;SDS011;9576;47.792;9.628;2022-08-01T02:21:59;6.88;;;4.05;;
18887;SDS011;9576;47.792;9.628;2022-08-01T02:25:05;6.90;;;4.00;;
18887;SDS011;9576;47.792;9.628;2022-08-01T02:28:13;5.50;;;3.75;;
18887;SDS011;9576;47.792;9.628;2022-08-01T02:31:20;4.50;;;3.60;;
18887;SDS011;9576;47.792;9.628;2022-08-01T02:34:24;5.78;;;3.88;;
18887;SDS011;9576;47.792;9.628;2022-08-01T02:37:33;4.65;;;3.65;;
18887;SDS011;9576;47.792;9.628;2022-08-01T02:40:38;4.80;;;3.70;;
18887;SDS011;9576;47.792;9.628;2022-08-01T02:43:43;6.72;;;3.60;;
18887;SDS011;9576;47.792;9.628;2022-08-01T02:46:51;4.78;;;3.47;;
18887;SDS011;9576;47.792;9.628;2022-08-01T02:49:56;7.60;;;3.47;;
18887;SDS011;9576;47.792;9.628;2022-08-01T02:53:00;5.68;;;3.88;;
18887;SDS011;9576;47.792;9.628;2022-08-01T02:56:03;5.60;;;3.10;;
18887;SDS011;9576;47.792;9.628;2022-08-01T02:59:07;5.80;;;4.20;;
18887;SDS011;9576;47.792;9.628;2022-08-01T03:02:15;5.32;;;3.65;;
18887;SDS011;9576;47.792;9.628;2022-08-01T03:05:19;4.60;;;3.42;;
18887;SDS011;9576;47.792;9.628;2022-08-01T03:08:21;7.55;;;3.50;;
18887;SDS011;9576;47.792;9.628;2022-08-01T03:11:25;6.47;;;4.07;;
18887;SDS011;9576;47.792;9.628;2022-08-01T03:14:29;9.47;;;3.93;;
18887;SDS011;9576;47.792;9.628;2022-08-01T03:17:37;4.50;;;3.58;;
18887;SDS011;9576;47.792;9.628;2022-08-01T03:20:41;17.85;;;4.18;;
18887;SDS011;9576;47.792;9.628;2022-08-01T03:23:45;5.03;;;4.18;;
18887;SDS011;9576;47.792;9.628;2022-08-01T03:26:49;6.43;;;4.23;;
18887;SDS011;9576;47.792;9.628;2022-08-01T03:29:55;8.65;;;4.10;;
18887;SDS011;9576;47.792;9.628;2022-08-01T03:33:00;9.75;;;4.22;;
18887;SDS011;9576;47.792;9.628;2022-08-01T03:36:02;9.27;;;3.97;;
18887;SDS011;9576;47.792;9.628;2022-08-01T03:39:06;8.00;;;4.07;;
18887;SDS011;9576;47.792;9.628;2022-08-01T03:42:14;11.70;;;4.10;;
18887;SDS011;9576;47.792;9.628;2022-08-01T03:45:21;5.22;;;3.70;;
18887;SDS011;9576;47.792;9.628;2022-08-01T03:48:28;5.43;;;3.50;;
18887;SDS011;9576;47.792;9.628;2022-08-01T03:51:36;5.07;;;3.55;;
18887;SDS011;9576;47.792;9.628;2022-08-01T03:54:40;12.75;;;4.30;;
18887;SDS011;9576;47.792;9.628;2022-08-01T03:57:50;5.80;;;3.83;;
18887;SDS011;9576;47.792;9.628;2022-08-01T04:00:53;4.20;;;3.40;;
18887;SDS011;9576;47.792;9.628;2022-08-01T04:03:57;5.43;;;3.92;;
18887;SDS011;9576;47.792;9.628;2022-08-01T04:07:00;5.67;;;4.03;;
18887;SDS011;9576;47.792;9.628;2022-08-01T04:10:07;7.05;;;3.70;;
18887;SDS011;9576;47.792;9.628;2022-08-01T04:13:09;6.50;;;3.67;;
18887;SDS011;9576;47.792;9.628;2022-08-01T04:16:11;6.40;;;3.90;;
18887;SDS011;9576;47.792;9.628;2022-08-01T04:19:15;6.35;;;4.65;;
18887;SDS011;9576;47.792;9.628;2022-08-01T04:22:17;5.28;;;4.20;;
18887;SDS011;9576;47.792;9.628;2022-08-01T04:25:21;10.00;;;4.38;;
18887;SDS011;9576;47.792;9.628;2022-08-01T04:28:27;9.32;;;4.22;;
18887;SDS011;9576;47.792;9.628;2022-08-01T04:31:31;5.47;;;4.30;;
18887;SDS011;9576;47.792;9.628;2022-08-01T04:34:35;7.32;;;4.10;;
18887;SDS011;9576;47.792;9.628;2022-08-01T04:37:41;23.38;;;15.27;;
18887;SDS011;9576;47.792;9.628;2022-08-01T04:40:45;13.25;;;8.13;;
18887;SDS011;9576;47.792;9.628;2022-08-01T04:43:48;8.50;;;5.55;;
18887;SDS011;9576;47.792;9.628;2022-08-01T04:46:51;8.95;;;4.95;;
18887;SDS011;9576;47.792;9.628;2022-08-01T04:49:56;7.97;;;4.82;;
18887;SDS011;9576;47.792;9.628;2022-08-01T04:52:59;11.40;;;4.22;;
18887;SDS011;9576;47.792;9.628;2022-08-01T04:56:03;8.33;;;4.10;;
18887;SDS011;9576;47.792;9.628;2022-08-01T04:59:06;10.20;;;4.25;;
18887;SDS011;9576;47.792;9.628;2022-08-01T05:02:25;7.63;;;4.30;;
18887;SDS011;9576;47.792;9.628;2022-08-01T05:08:33;6.60;;;4.18;;
18887;SDS011;9576;47.792;9.628;2022-08-01T05:11:36;6.03;;;4.43;;
18887;SDS011;9576;47.792;9.628;2022-08-01T05:14:38;11.57;;;4.28;;
18887;SDS011;9576;47.792;9.628;2022-08-01T05:17:41;11.30;;;4.63;;
18887;SDS011;9576;47.792;9.628;2022-08-01T05:20:43;8.70;;;4.65;;
18887;SDS011;9576;47.792;9.628;2022-08-01T05:23:48;6.15;;;4.10;;
18887;SDS011;9576;47.792;9.628;2022-08-01T05:26:50;10.18;;;4.60;;
18887;SDS011;9576;47.792;9.628;2022-08-01T05:29:53;7.03;;;4.05;;
18887;SDS011;9576;47.792;9.628;2022-08-01T05:32:55;10.07;;;4.40;;
18887;SDS011;9576;47.792;9.628;2022-08-01T05:35:57;11.65;;;4.88;;
18887;SDS011;9576;47.792;9.628;2022-08-01T05:39:01;15.68;;;5.03;;
18887;SDS011;9576;47.792;9.628;2022-08-01T05:42:03;7.07;;;4.43;;
18887;SDS011;9576;47.792;9.628;2022-08-01T05:45:06;10.90;;;4.47;;
18887;SDS011;9576;47.792;9.628;2022-08-01T05:48:08;9.25;;;4.32;;
18887;SDS011;9576;47.792;9.628;2022-08-01T05:51:10;8.40;;;4.35;;
18887;SDS011;9576;47.792;9.628;2022-08-01T05:54:14;7.97;;;4.20;;
18887;SDS011;9576;47.792;9.628;2022-08-01T05:57:16;6.80;;;4.43;;
18887;SDS011;9576;47.792;9.628;2022-08-01T06:00:19;6.60;;;4.45;;
18887;SDS011;9576;47.792;9.628;2022-08-01T06:03:21;4.65;;;3.50;;
18887;SDS011;9576;47.792;9.628;2022-08-01T06:06:24;6.78;;;3.13;;
18887;SDS011;9576;47.792;9.628;2022-08-01T06:09:28;7.53;;;4.22;;
18887;SDS011;9576;47.792;9.628;2022-08-01T06:12:32;7.18;;;3.38;;
18887;SDS011;9576;47.792;9.628;2022-08-01T06:15:34;8.75;;;3.70;;
18887;SDS011;9576;47.792;9.628;2022-08-01T06:18:36;8.02;;;3.60;;
18887;SDS011;9576;47.792;9.628;2022-08-01T06:21:38;6.75;;;3.47;;
18887;SDS011;9576;47.792;9.628;2022-08-01T06:24:42;9.10;;;3.33;;
18887;SDS011;9576;47.792;9.628;2022-08-01T06:27:44;7.13;;;4.00;;
18887;SDS011;9576;47.792;9.628;2022-08-01T06:30:46;6.38;;;4.43;;
18887;SDS011;9576;47.792;9.628;2022-08-01T06:33:48;6.13;;;4.03;;
18887;SDS011;9576;47.792;9.628;2022-08-01T06:36:50;19.27;;;3.83;;
18887;SDS011;9576;47.792;9.628;2022-08-01T06:39:54;10.10;;;3.17;;
18887;SDS011;9576;47.792;9.628;2022-08-01T06:42:56;7.28;;;3.72;;
18887;SDS011;9576;47.792;9.628;2022-08-01T06:45:58;4.93;;;3.30;;
18887;SDS011;9576;47.792;9.628;2022-08-01T06:49:00;7.03;;;3.92;;
18887;SDS011;9576;47.792;9.628;2022-08-01T06:52:02;11.00;;;3.75;;
18887;SDS011;9576;47.792;9.628;2022-08-01T06:55:07;9.07;;;3.60;;
18887;SDS011;9576;47.792;9.628;2022-08-01T06:58:10;6.95;;;3.80;;
18887;SDS011;9576;47.792;9.628;2022-08-01T07:01:12;9.40;;;3.45;;
18887;SDS011;9576;47.792;9.628;2022-08-01T07:04:14;4.07;;;2.83;;
18887;SDS011;9576;47.792;9.628;2022-08-01T07:07:16;7.47;;;2.88;;
18887;SDS011;9576;47.792;9.628;2022-08-01T07:10:20;7.15;;;3.72;;
18887;SDS011;9576;47.792;9.628;2022-08-01T07:13:22;12.55;;;3.67;;
18887;SDS011;9576;47.792;9.628;2022-08-01T07:16:25;6.13;;;3.08;;
18887;SDS011;9576;47.792;9.628;2022-08-01T07:19:27;4.47;;;2.88;;
18887;SDS011;9576;47.792;9.628;2022-08-01T07:22:29;5.15;;;3.40;;
18887;SDS011;9576;47.792;9.628;2022-08-01T07:25:32;3.90;;;2.60;;
18887;SDS011;9576;47.792;9.628;2022-08-01T07:28:34;3.70;;;2.80;;
18887;SDS011;9576;47.792;9.628;2022-08-01T07:31:37;3.15;;;2.55;;
18887;SDS011;9576;47.792;9.628;2022-08-01T07:34:39;4.35;;;3.20;;
18887;SDS011;9576;47.792;9.628;2022-08-01T07:37:41;7.43;;;3.92;;
18887;SDS011;9576;47.792;9.628;2022-08-01T07:40:44;9.80;;;4.10;;
18887;SDS011;9576;47.792;9.628;2022-08-01T07:43:46;5.65;;;3.25;;
18887;SDS011;9576;47.792;9.628;2022-08-01T07:46:49;6.72;;;3.78;;
18887;SDS011;9576;47.792;9.628;2022-08-01T07:49:51;9.30;;;3.83;;
18887;SDS011;9576;47.792;9.628;2022-08-01T07:52:53;4.97;;;3.30;;
18887;SDS011;9576;47.792;9.628;2022-08-01T07:55:56;11.10;;;3.08;;
18887;SDS011;9576;47.792;9.628;2022-08-01T07:58:59;5.22;;;3.53;;
18887;SDS011;9576;47.792;9.628;2022-08-01T08:02:01;5.40;;;3.30;;
18887;SDS011;9576;47.792;9.628;2022-08-01T08:05:04;7.88;;;3.30;;
18887;SDS011;9576;47.792;9.628;2022-08-01T08:08:07;5.53;;;2.78;;
18887;SDS011;9576;47.792;9.628;2022-08-01T08:11:12;4.68;;;3.28;;
18887;SDS011;9576;47.792;9.628;2022-08-01T08:14:15;6.85;;;3.00;;
18887;SDS011;9576;47.792;9.628;2022-08-01T08:17:17;3.92;;;2.70;;
18887;SDS011;9576;47.792;9.628;2022-08-01T08:20:19;5.93;;;3.08;;
18887;SDS011;9576;47.792;9.628;2022-08-01T08:23:24;4.68;;;3.03;;
18887;SDS011;9576;47.792;9.628;2022-08-01T08:26:55;6.20;;;3.00;;
18887;SDS011;9576;47.792;9.628;2022-08-01T08:29:58;7.25;;;3.05;;
18887;SDS011;9576;47.792;9.628;2022-08-01T08:33:00;6.30;;;3.00;;
18887;SDS011;9576;47.792;9.628;2022-08-01T08:36:02;5.63;;;3.58;;
18887;SDS011;9576;47.792;9.628;2022-08-01T08:39:05;5.68;;;3.03;;
18887;SDS011;9576;47.792;9.628;2022-08-01T08:42:09;6.45;;;3.45;;
18887;SDS011;9576;47.792;9.628;2022-08-01T08:45:12;4.25;;;2.85;;
18887;SDS011;9576;47.792;9.628;2022-08-01T08:48:14;5.60;;;3.33;;
18887;SDS011;9576;47.792;9.628;2022-08-01T08:51:16;8.82;;;3.38;;
18887;SDS011;9576;47.792;9.628;2022-08-01T08:54:21;7.68;;;3.17;;
18887;SDS011;9576;47.792;9.628;2022-08-01T09:00:28;5.72;;;3.30;;
18887;SDS011;9576;47.792;9.628;2022-08-01T09:03:30;6.72;;;2.97;;
18887;SDS011;9576;47.792;9.628;2022-08-01T09:06:33;3.35;;;2.80;;
18887;SDS011;9576;47.792;9.628;2022-08-01T09:09:35;3.75;;;2.80;;
18887;SDS011;9576;47.792;9.628;2022-08-01T09:12:39;3.85;;;3.13;;
18887;SDS011;9576;47.792;9.628;2022-08-01T09:15:42;15.85;;;2.75;;
18887;SDS011;9576;47.792;9.628;2022-08-01T09:18:45;9.10;;;2.95;;
18887;SDS011;9576;47.792;9.628;2022-08-01T09:21:55;5.28;;;2.60;;
18887;SDS011;9576;47.792;9.628;2022-08-01T09:25:00;4.57;;;2.80;;
18887;SDS011;9576;47.792;9.628;2022-08-01T09:28:06;6.20;;;2.55;;
18887;SDS011;9576;47.792;9.628;2022-08-01T09:31:08;4.78;;;3.00;;
18887;SDS011;9576;47.792;9.628;2022-08-01T09:34:11;5.55;;;2.58;;
18887;SDS011;9576;47.792;9.628;2022-08-01T09:37:13;3.85;;;2.83;;
18887;SDS011;9576;47.792;9.628;2022-08-01T09:40:18;7.28;;;3.47;;
18887;SDS011;9576;47.792;9.628;2022-08-01T09:43:21;3.67;;;2.55;;
18887;SDS011;9576;47.792;9.628;2022-08-01T09:46:25;5.82;;;2.35;;
18887;SDS011;9576;47.792;9.628;2022-08-01T09:49:31;5.38;;;2.30;;
18887;SDS011;9576;47.792;9.628;2022-08-01T09:52:34;2.42;;;2.10;;
18887;SDS011;9576;47.792;9.628;2022-08-01T09:55:36;7.63;;;2.92;;
18887;SDS011;9576;47.792;9.628;2022-08-01T09:58:51;6.07;;;2.72;;
18887;SDS011;9576;47.792;9.628;2022-08-01T10:01:54;3.67;;;2.53;;
18887;SDS011;9576;47.792;9.628;2022-08-01T10:04:57;4.82;;;2.80;;
18887;SDS011;9576;47.792;9.628;2022-08-01T10:07:59;9.60;;;2.25;;
18887;SDS011;9576;47.792;9.628;2022-08-01T10:11:04;9.80;;;2.92;;
18887;SDS011;9576;47.792;9.628;2022-08-01T10:14:11;5.60;;;2.35;;
18887;SDS011;9576;47.792;9.628;2022-08-01T10:17:15;3.70;;;2.75;;
18887;SDS011;9576;47.792;9.628;2022-08-01T10:20:18;4.28;;;2.53;;
18887;SDS011;9576;47.792;9.628;2022-08-01T10:23:21;5.18;;;2.70;;
18887;SDS011;9576;47.792;9.628;2022-08-01T10:26:26;4.43;;;2.67;;
18887;SDS011;9576;47.792;9.628;2022-08-01T10:29:34;6.43;;;2.53;;
18887;SDS011;9576;47.792;9.628;2022-08-01T10:32:41;6.13;;;2.15;;
18887;SDS011;9576;47.792;9.628;2022-08-01T10:35:44;3.30;;;2.88;;
18887;SDS011;9576;47.792;9.628;2022-08-01T10:38:47;12.20;;;2.75;;
18887;SDS011;9576;47.792;9.628;2022-08-01T10:41:49;6.78;;;2.67;;
18887;SDS011;9576;47.792;9.628;2022-08-01T10:44:53;4.18;;;2.65;;
18887;SDS011;9576;47.792;9.628;2022-08-01T10:47:56;3.50;;;2.28;;
18887;SDS011;9576;47.792;9.628;2022-08-01T10:51:02;13.13;;;2.50;;
18887;SDS011;9576;47.792;9.628;2022-08-01T10:54:06;2.97;;;2.40;;
18887;SDS011;9576;47.792;9.628;2022-08-01T10:57:09;4.38;;;2.72;;
18887;SDS011;9576;47.792;9.628;2022-08-01T11:00:17;4.28;;;2.58;;
18887;SDS011;9576;47.792;9.628;2022-08-01T11:03:25;5.60;;;2.35;;
18887;SDS011;9576;47.792;9.628;2022-08-01T11:06:40;4.38;;;2.53;;
18887;SDS011;9576;47.792;9.628;2022-08-01T11:09:44;4.57;;;3.17;;
18887;SDS011;9576;47.792;9.628;2022-08-01T11:12:48;2.42;;;1.98;;
18887;SDS011;9576;47.792;9.628;2022-08-01T11:15:51;2.30;;;1.50;;
18887;SDS011;9576;47.792;9.628;2022-08-01T11:19:27;3.55;;;2.17;;
18887;SDS011;9576;47.792;9.628;2022-08-01T11:26:27;3.88;;;2.28;;
18887;SDS011;9576;47.792;9.628;2022-08-01T11:29:29;3.38;;;2.45;;
18887;SDS011;9576;47.792;9.628;2022-08-01T11:32:31;2.58;;;2.15;;
18887;SDS011;9576;47.792;9.628;2022-08-01T11:35:36;2.53;;;1.80;;
18887;SDS011;9576;47.792;9.628;2022-08-01T11:38:39;5.18;;;2.30;;
18887;SDS011;9576;47.792;9.628;2022-08-01T11:41:43;3.92;;;2.33;;
18887;SDS011;9576;47.792;9.628;2022-08-01T11:44:50;7.28;;;2.38;;
18887;SDS011;9576;47.792;9.628;2022-08-01T11:47:52;5.55;;;2.08;;
18887;SDS011;9576;47.792;9.628;2022-08-01T11:50:56;3.60;;;2.10;;
18887;SDS011;9576;47.792;9.628;2022-08-01T11:57:01;3.42;;;2.00;;
18887;SDS011;9576;47.792;9.628;2022-08-01T12:00:10;5.68;;;1.95;;
18887;SDS011;9576;47.792;9.628;2022-08-01T12:03:14;2.95;;;2.15;;
18887;SDS011;9576;47.792;9.628;2022-08-01T12:06:27;2.35;;;1.70;;
18887;SDS011;9576;47.792;9.628;2022-08-01T12:09:29;2.03;;;1.80;;
18887;SDS011;9576;47.792;9.628;2022-08-01T12:12:32;4.15;;;2.00;;
18887;SDS011;9576;47.792;9.628;2022-08-01T12:15:36;3.45;;;2.40;;
18887;SDS011;9576;47.792;9.628;2022-08-01T12:18:39;4.30;;;1.92;;
18887;SDS011;9576;47.792;9.628;2022-08-01T12:21:43;3.53;;;1.90;;
18887;SDS011;9576;47.792;9.628;2022-08-01T12:24:45;2.78;;;2.13;;
18887;SDS011;9576;47.792;9.628;2022-08-01T12:27:47;3.08;;;1.77;;
18887;SDS011;9576;47.792;9.628;2022-08-01T12:30:50;2.55;;;1.38;;
18887;SDS011;9576;47.792;9.628;2022-08-01T12:33:52;5.05;;;1.52;;
18887;SDS011;9576;47.792;9.628;2022-08-01T12:36:56;2.75;;;1.40;;
18887;SDS011;9576;47.792;9.628;2022-08-01T12:39:59;1.25;;;1.15;;
18887;SDS011;9576;47.792;9.628;2022-08-01T12:43:03;2.75;;;1.55;;
18887;SDS011;9576;47.792;9.628;2022-08-01T12:46:07;12.80;;;2.20;;
18887;SDS011;9576;47.792;9.628;2022-08-01T12:49:16;1.88;;;1.65;;
18887;SDS011;9576;47.792;9.628;2022-08-01T12:52:19;2.13;;;1.20;;
18887;SDS011;9576;47.792;9.628;2022-08-01T12:55:22;2.33;;;1.63;;
18887;SDS011;9576;47.792;9.628;2022-08-01T12:58:30;4.95;;;1.85;;
18887;SDS011;9576;47.792;9.628;2022-08-01T13:01:33;1.67;;;1.52;;
18887;SDS011;9576;47.792;9.628;2022-08-01T13:04:48;2.03;;;1.35;;
18887;SDS011;9576;47.792;9.628;2022-08-01T13:07:52;1.98;;;1.60;;
18887;SDS011;9576;47.792;9.628;2022-08-01T13:10:59;6.25;;;1.42;;
18887;SDS011;9576;47.792;9.628;2022-08-01T13:14:04;9.82;;;2.00;;
18887;SDS011;9576;47.792;9.628;2022-08-01T13:17:06;3.83;;;2.00;;
18887;SDS011;9576;47.792;9.628;2022-08-01T13:20:09;3.30;;;1.58;;
18887;SDS011;9576;47.792;9.628;2022-08-01T13:23:13;2.53;;;1.40;;
18887;SDS011;9576;47.792;9.628;2022-08-01T13:26:16;1.85;;;1.67;;
18887;SDS011;9576;47.792;9.628;2022-08-01T13:29:20;3.03;;;1.50;;
18887;SDS011;9576;47.792;9.628;2022-08-01T13:32:23;1.73;;;1.45;;
18887;SDS011;9576;47.792;9.628;2022-08-01T13:35:25;2.30;;;1.55;;
18887;SDS011;9576;47.792;9.628;2022-08-01T13:38:29;3.00;;;1.48;;
18887;SDS011;9576;47.792;9.628;2022-08-01T13:41:49;1.63;;;1.25;;
18887;SDS011;9576;47.792;9.628;2022-08-01T13:44:52;1.83;;;1.65;;
18887;SDS011;9576;47.792;9.628;2022-08-01T13:47:54;6.18;;;1.67;;
18887;SDS011;9576;47.792;9.628;2022-08-01T13:50:56;3.75;;;1.60;;
18887;SDS011;9576;47.792;9.628;2022-08-01T13:54:00;2.10;;;1.38;;
18887;SDS011;9576;47.792;9.628;2022-08-01T13:57:02;5.77;;;1.70;;
18887;SDS011;9576;47.792;9.628;2022-08-01T14:00:05;1.92;;;1.55;;
18887;SDS011;9576;47.792;9.628;2022-08-01T14:03:09;4.18;;;1.60;;
18887;SDS011;9576;47.792;9.628;2022-08-01T14:06:11;2.63;;;1.58;;
18887;SDS011;9576;47.792;9.628;2022-08-01T14:09:15;3.13;;;2.05;;
18887;SDS011;9576;47.792;9.628;2022-08-01T14:12:19;2.15;;;1.60;;
18887;SDS011;9576;47.792;9.628;2022-08-01T14:15:21;1.85;;;1.70;;
18887;SDS011;9576;47.792;9.628;2022-08-01T14:18:23;2.97;;;1.60;;
18887;SDS011;9576;47.792;9.628;2022-08-01T14:21:25;2.97;;;1.50;;
18887;SDS011;9576;47.792;9.628;2022-08-01T14:24:29;3.60;;;1.77;;
18887;SDS011;9576;47.792;9.628;2022-08-01T14:27:31;1.60;;;1.50;;
18887;SDS011;9576;47.792;9.628;2022-08-01T14:30:36;2.55;;;1.65;;
18887;SDS011;9576;47.792;9.628;2022-08-01T14:33:38;1.70;;;1.20;;
18887;SDS011;9576;47.792;9.628;2022-08-01T14:36:40;1.95;;;1.48;;
18887;SDS011;9576;47.792;9.628;2022-08-01T14:39:45;2.75;;;1.50;;
18887;SDS011;9576;47.792;9.628;2022-08-01T14:42:47;1.65;;;1.55;;
18887;SDS011;9576;47.792;9.628;2022-08-01T14:45:49;1.90;;;1.52;;
18887;SDS011;9576;47.792;9.628;2022-08-01T14:48:52;2.60;;;1.75;;
18887;SDS011;9576;47.792;9.628;2022-08-01T14:51:54;4.03;;;1.77;;
18887;SDS011;9576;47.792;9.628;2022-08-01T14:54:57;1.42;;;1.15;;
18887;SDS011;9576;47.792;9.628;2022-08-01T14:58:01;4.40;;;1.40;;
18887;SDS011;9576;47.792;9.628;2022-08-01T15:01:04;8.32;;;1.98;;
18887;SDS011;9576;47.792;9.628;2022-08-01T15:04:06;13.05;;;3.08;;
18887;SDS011;9576;47.792;9.628;2022-08-01T15:07:08;10.05;;;2.55;;
18887;SDS011;9576;47.792;9.628;2022-08-01T15:10:12;2.15;;;1.88;;
18887;SDS011;9576;47.792;9.628;2022-08-01T15:13:16;3.15;;;2.60;;
18887;SDS011;9576;47.792;9.628;2022-08-01T15:16:18;5.63;;;2.03;;
18887;SDS011;9576;47.792;9.628;2022-08-01T15:19:20;6.43;;;2.22;;
18887;SDS011;9576;47.792;9.628;2022-08-01T15:22:23;4.55;;;2.40;;
18887;SDS011;9576;47.792;9.628;2022-08-01T15:25:27;9.82;;;2.45;;
18887;SDS011;9576;47.792;9.628;2022-08-01T15:28:30;6.75;;;2.60;;
18887;SDS011;9576;47.792;9.628;2022-08-01T15:31:32;7.40;;;2.72;;
18887;SDS011;9576;47.792;9.628;2022-08-01T15:34:34;5.00;;;2.50;;
18887;SDS011;9576;47.792;9.628;2022-08-01T15:37:37;3.33;;;2.45;;
18887;SDS011;9576;47.792;9.628;2022-08-01T15:40:41;5.32;;;3.05;;
18887;SDS011;9576;47.792;9.628;2022-08-01T15:43:43;5.65;;;2.03;;
18887;SDS011;9576;47.792;9.628;2022-08-01T15:46:45;4.93;;;2.03;;
18887;SDS011;9576;47.792;9.628;2022-08-01T15:49:47;4.00;;;2.33;;
18887;SDS011;9576;47.792;9.628;2022-08-01T15:52:49;3.55;;;1.92;;
18887;SDS011;9576;47.792;9.628;2022-08-01T15:55:53;7.47;;;2.53;;
18887;SDS011;9576;47.792;9.628;2022-08-01T15:58:55;4.20;;;2.42;;
18887;SDS011;9576;47.792;9.628;2022-08-01T16:01:57;10.18;;;2.55;;
18887;SDS011;9576;47.792;9.628;2022-08-01T16:04:59;4.68;;;2.45;;
18887;SDS011;9576;47.792;9.628;2022-08-01T16:08:02;4.53;;;2.40;;
18887;SDS011;9576;47.792;9.628;2022-08-01T16:11:06;3.22;;;2.08;;
18887;SDS011;9576;47.792;9.628;2022-08-01T16:14:08;5.82;;;2.67;;
18887;SDS011;9576;47.792;9.628;2022-08-01T16:17:10;3.97;;;2.78;;
18887;SDS011;9576;47.792;9.628;2022-08-01T16:20:12;5.22;;;2.90;;
18887;SDS011;9576;47.792;9.628;2022-08-01T16:23:15;7.43;;;2.35;;
18887;SDS011;9576;47.792;9.628;2022-08-01T16:26:19;7.00;;;2.33;;
18887;SDS011;9576;47.792;9.628;2022-08-01T16:29:21;5.93;;;2.50;;
18887;SDS011;9576;47.792;9.628;2022-08-01T16:32:24;4.85;;;2.33;;
18887;SDS011;9576;47.792;9.628;2022-08-01T16:35:27;4.63;;;2.20;;
18887;SDS011;9576;47.792;9.628;2022-08-01T16:38:29;6.05;;;2.55;;
18887;SDS011;9576;47.792;9.628;2022-08-01T16:41:32;8.52;;;2.30;;
18887;SDS011;9576;47.792;9.628;2022-08-01T16:44:35;4.00;;;2.85;;
18887;SDS011;9576;47.792;9.628;2022-08-01T16:47:37;10.15;;;2.38;;
18887;SDS011;9576;47.792;9.628;2022-08-01T16:50:39;4.88;;;2.95;;
18887;SDS011;9576;47.792;9.628;2022-08-01T16:53:42;8.18;;;2.60;;
18887;SDS011;9576;47.792;9.628;2022-08-01T16:56:46;4.00;;;2.40;;
18887;SDS011;9576;47.792;9.628;2022-08-01T16:59:48;8.85;;;2.45;;
18887;SDS011;9576;47.792;9.628;2022-08-01T17:02:50;5.28;;;2.45;;
18887;SDS011;9576;47.792;9.628;2022-08-01T17:05:53;5.57;;;2.53;;
18887;SDS011;9576;47.792;9.628;2022-08-01T17:08:55;9.70;;;3.00;;
18887;SDS011;9576;47.792;9.628;2022-08-01T17:11:58;3.22;;;2.20;;
18887;SDS011;9576;47.792;9.628;2022-08-01T17:15:00;4.80;;;2.70;;
18887;SDS011;9576;47.792;9.628;2022-08-01T17:18:03;8.43;;;2.40;;
18887;SDS011;9576;47.792;9.628;2022-08-01T17:21:06;3.53;;;2.35;;
18887;SDS011;9576;47.792;9.628;2022-08-01T17:24:08;3.78;;;2.42;;
18887;SDS011;9576;47.792;9.628;2022-08-01T17:27:12;4.28;;;2.53;;
18887;SDS011;9576;47.792;9.628;2022-08-01T17:30:16;8.07;;;2.35;;
18887;SDS011;9576;47.792;9.628;2022-08-01T17:33:18;10.50;;;2.53;;
18887;SDS011;9576;47.792;9.628;2022-08-01T17:36:20;3.58;;;2.53;;
18887;SDS011;9576;47.792;9.628;2022-08-01T17:39:22;4.05;;;2.50;;
18887;SDS011;9576;47.792;9.628;2022-08-01T17:42:26;3.85;;;2.58;;
18887;SDS011;9576;47.792;9.628;2022-08-01T17:48:31;6.70;;;2.72;;
18887;SDS011;9576;47.792;9.628;2022-08-01T17:51:34;6.38;;;2.67;;
18887;SDS011;9576;47.792;9.628;2022-08-01T17:54:36;3.65;;;2.70;;
18887;SDS011;9576;47.792;9.628;2022-08-01T17:57:39;7.30;;;2.78;;
18887;SDS011;9576;47.792;9.628;2022-08-01T18:00:41;20.48;;;9.70;;
18887;SDS011;9576;47.792;9.628;2022-08-01T18:03:44;13.52;;;3.15;;
18887;SDS011;9576;47.792;9.628;2022-08-01T18:06:46;8.95;;;3.25;;
18887;SDS011;9576;47.792;9.628;2022-08-01T18:09:48;13.65;;;3.00;;
18887;SDS011;9576;47.792;9.628;2022-08-01T18:12:52;5.15;;;2.53;;
18887;SDS011;9576;47.792;9.628;2022-08-01T18:15:54;9.32;;;2.83;;
18887;SDS011;9576;47.792;9.628;2022-08-01T18:18:56;8.27;;;3.13;;
18887;SDS011;9576;47.792;9.628;2022-08-01T18:21:58;9.27;;;5.25;;
18887;SDS011;9576;47.792;9.628;2022-08-01T18:25:01;19.73;;;3.03;;
18887;SDS011;9576;47.792;9.628;2022-08-01T18:28:05;6.20;;;2.45;;
18887;SDS011;9576;47.792;9.628;2022-08-01T18:31:07;5.77;;;3.20;;
18887;SDS011;9576;47.792;9.628;2022-08-01T18:34:12;4.95;;;2.90;;
18887;SDS011;9576;47.792;9.628;2022-08-01T18:37:14;4.88;;;2.63;;
18887;SDS011;9576;47.792;9.628;2022-08-01T18:40:16;9.98;;;2.85;;
18887;SDS011;9576;47.792;9.628;2022-08-01T18:43:20;4.03;;;2.40;;
18887;SDS011;9576;47.792;9.628;2022-08-01T18:46:22;4.50;;;2.83;;
18887;SDS011;9576;47.792;9.628;2022-08-01T18:49:24;4.60;;;2.20;;
18887;SDS011;9576;47.792;9.628;2022-08-01T18:52:26;4.57;;;2.75;;
18887;SDS011;9576;47.792;9.628;2022-08-01T18:55:28;5.00;;;2.67;;
18887;SDS011;9576;47.792;9.628;2022-08-01T18:58:32;12.98;;;2.42;;